Time;durP1;ratioP1;P1;durP2;ratioP2;P2;SDS_P1;SDS_P2;PMS_P1;PMS_P2;Temp;Humidity;BMP_temperature;BMP_pressure;BME280_temperature;BME280_humidity;BME280_pressure;Samples;Min_cycle;Max_cycle;Signal;HPM_P1;HPM_P2
2023/03/30 00:01:13;;;;;;;5.25;3.33;;;11.50;99.90;;;;;;5022056;28;20473;-82
2023/03/30 00:03:41;;;;;;;11.63;4.07;;;11.50;99.90;;;;;;5031216;28;20025;-82
2023/03/30 00:06:08;;;;;;;9.20;3.60;;;11.50;99.90;;;;;;5028766;28;20447;-82
2023/03/30 00:08:34;;;;;;;4.55;3.40;;;11.40;99.90;;;;;;5029589;28;20470;-83
2023/03/30 00:11:05;;;;;;;7.78;3.33;;;11.40;99.90;;;;;;5028242;28;20032;-82
2023/03/30 00:13:32;;;;;;;8.23;3.05;;;11.30;99.90;;;;;;5028232;28;20017;-83
2023/03/30 00:15:58;;;;;;;8.75;3.30;;;11.30;99.90;;;;;;5025559;28;20140;-83
2023/03/30 00:18:23;;;;;;;7.50;3.25;;;11.20;99.90;;;;;;5028578;28;20518;-83
2023/03/30 00:20:50;;;;;;;7.45;3.25;;;11.20;99.90;;;;;;5035249;28;20045;-83
2023/03/30 00:23:17;;;;;;;4.75;2.97;;;11.20;99.90;;;;;;5031274;28;20378;-83
2023/03/30 00:25:42;;;;;;;6.28;2.97;;;11.10;99.90;;;;;;5041163;28;20059;-83
2023/03/30 00:28:11;;;;;;;5.88;2.90;;;11.10;99.90;;;;;;5031994;28;20053;-83
2023/03/30 00:30:37;;;;;;;7.68;3.72;;;11.10;99.90;;;;;;5028455;28;20090;-83
2023/03/30 00:33:03;;;;;;;7.72;3.60;;;11.00;99.90;;;;;;5026709;28;20026;-83
2023/03/30 00:35:31;;;;;;;5.40;3.17;;;11.00;99.90;;;;;;5029801;28;20024;-83
2023/03/30 00:38:02;;;;;;;4.65;2.70;;;10.90;99.90;;;;;;5033374;28;20038;-83
2023/03/30 00:40:28;;;;;;;5.30;2.80;;;10.80;99.90;;;;;;5028091;28;20076;-82
2023/03/30 00:43:02;;;;;;;5.03;3.05;;;10.80;99.90;;;;;;5028993;28;20045;-83
2023/03/30 00:45:34;;;;;;;4.40;2.65;;;10.80;99.90;;;;;;5030208;28;20034;-83
2023/03/30 00:48:23;;;;;;;4.32;2.67;;;10.70;99.90;;;;;;5023639;28;20079;-83
2023/03/30 00:51:01;;;;;;;6.30;3.67;;;10.70;99.90;;;;;;5034643;28;20026;-83
2023/03/30 00:53:41;;;;;;;4.30;3.10;;;10.70;99.90;;;;;;5027821;28;20041;-83
2023/03/30 00:56:11;;;;;;;9.57;3.40;;;10.80;99.90;;;;;;5027768;28;20044;-83
2023/03/30 00:58:39;;;;;;;10.05;3.25;;;10.80;99.90;;;;;;5031229;28;20030;-82
2023/03/30 01:01:09;;;;;;;8.77;4.38;;;10.80;99.90;;;;;;5034851;28;20134;-83
2023/03/30 01:03:58;;;;;;;6.88;3.33;;;10.80;99.90;;;;;;5027702;28;20072;-83
2023/03/30 01:06:28;;;;;;;7.60;3.22;;;10.80;99.90;;;;;;5027215;28;20044;-83
2023/03/30 01:08:57;;;;;;;4.88;2.40;;;10.70;99.90;;;;;;5025576;28;20034;-83
2023/03/30 01:11:23;;;;;;;6.70;3.30;;;10.80;99.90;;;;;;5034212;28;20025;-83
2023/03/30 01:13:57;;;;;;;6.63;2.88;;;10.80;99.90;;;;;;5034480;28;20898;-83
2023/03/30 01:16:46;;;;;;;7.57;2.95;;;10.80;99.90;;;;;;5030699;28;20428;-83
2023/03/30 01:19:36;;;;;;;9.25;3.97;;;10.70;99.90;;;;;;5037767;28;20032;-84
2023/03/30 01:22:45;;;;;;;7.20;3.47;;;10.70;99.90;;;;;;5038127;28;20409;-83
2023/03/30 01:25:35;;;;;;;5.00;3.38;;;10.60;99.90;;;;;;5029645;28;20090;-83
2023/03/30 01:28:29;;;;;;;3.80;3.00;;;10.50;99.90;;;;;;5031085;28;20053;-83
2023/03/30 01:31:33;;;;;;;7.50;4.43;;;10.50;99.90;;;;;;5027204;28;20036;-83
2023/03/30 01:34:24;;;;;;;9.05;4.10;;;10.40;99.90;;;;;;5024741;28;20505;-83
2023/03/30 01:37:08;;;;;;;9.65;3.83;;;10.40;99.90;;;;;;5036526;28;20044;-83
2023/03/30 01:39:40;;;;;;;14.43;4.18;;;10.30;99.90;;;;;;5034967;28;20056;-83
2023/03/30 01:42:53;;;;;;;9.95;3.47;;;10.30;99.90;;;;;;5027747;28;20049;-83
2023/03/30 01:45:37;;;;;;;6.03;3.60;;;10.30;99.90;;;;;;5031049;28;20032;-83
2023/03/30 01:48:43;;;;;;;6.57;3.70;;;10.20;99.90;;;;;;5029562;28;20036;-83
2023/03/30 01:51:18;;;;;;;10.25;3.28;;;10.20;99.90;;;;;;5019321;28;20128;-83
2023/03/30 01:53:49;;;;;;;8.90;3.38;;;10.20;99.90;;;;;;5028750;28;20052;-83
2023/03/30 01:56:30;;;;;;;9.82;2.95;;;10.20;99.90;;;;;;5032247;28;20732;-83
2023/03/30 01:59:13;;;;;;;9.10;3.63;;;10.20;99.90;;;;;;5034720;28;20057;-83
2023/03/30 02:01:41;;;;;;;6.60;3.15;;;10.10;99.90;;;;;;5036970;28;20057;-83
2023/03/30 02:04:09;;;;;;;8.55;3.63;;;10.10;99.90;;;;;;5033563;28;20188;-83
2023/03/30 02:06:43;;;;;;;5.85;3.00;;;10.00;99.90;;;;;;5041195;28;20120;-83
2023/03/30 02:09:14;;;;;;;4.57;3.13;;;10.00;99.90;;;;;;5036212;28;20029;-83
2023/03/30 02:11:45;;;;;;;8.18;2.97;;;10.00;99.90;;;;;;5039714;28;20029;-83
2023/03/30 02:14:14;;;;;;;4.88;3.55;;;9.90;99.90;;;;;;5026779;28;20029;-83
2023/03/30 02:16:46;;;;;;;6.38;3.20;;;9.80;99.90;;;;;;5035352;28;20026;-82
2023/03/30 02:19:12;;;;;;;6.15;3.30;;;9.80;99.90;;;;;;5039003;28;20033;-83
2023/03/30 02:21:38;;;;;;;5.90;2.63;;;9.80;99.90;;;;;;5030377;28;20063;-83
2023/03/30 02:24:06;;;;;;;4.47;2.50;;;9.70;99.90;;;;;;5038680;28;20033;-83
2023/03/30 02:26:32;;;;;;;6.45;3.33;;;9.70;99.90;;;;;;5032127;28;20100;-83
2023/03/30 02:28:59;;;;;;;5.43;2.85;;;9.70;99.90;;;;;;5038468;28;20541;-83
2023/03/30 02:31:25;;;;;;;5.15;3.13;;;9.70;99.90;;;;;;5037289;28;20537;-83
2023/03/30 02:33:53;;;;;;;5.35;3.08;;;9.60;99.90;;;;;;5037690;28;20034;-83
2023/03/30 02:36:40;;;;;;;7.60;2.70;;;9.60;99.90;;;;;;5039458;28;20429;-83
2023/03/30 02:39:09;;;;;;;7.50;3.25;;;9.60;99.90;;;;;;5038395;28;20033;-83
2023/03/30 02:42:25;;;;;;;5.13;2.47;;;9.60;99.90;;;;;;5036845;28;20042;-83
2023/03/30 02:44:58;;;;;;;6.30;2.60;;;9.50;99.90;;;;;;5028002;28;20037;-83
2023/03/30 02:48:20;;;;;;;6.60;2.80;;;9.50;99.90;;;;;;5039446;28;20135;-83
2023/03/30 02:51:22;;;;;;;6.53;2.92;;;9.60;99.90;;;;;;4985670;28;20120;-83
2023/03/30 02:54:00;;;;;;;8.15;2.83;;;9.50;99.90;;;;;;4993997;28;20034;-83
2023/03/30 02:56:45;;;;;;;10.43;3.78;;;9.60;99.90;;;;;;5032543;28;20098;-83
2023/03/30 02:59:17;;;;;;;5.68;3.63;;;9.50;99.90;;;;;;5027468;28;20368;-83
2023/03/30 03:01:57;;;;;;;11.05;3.17;;;9.60;99.90;;;;;;5032175;28;20053;-83
2023/03/30 03:04:27;;;;;;;5.82;2.83;;;9.60;99.90;;;;;;5028227;28;20029;-83
2023/03/30 03:06:54;;;;;;;14.65;3.47;;;9.60;99.90;;;;;;5032318;28;20036;-83
2023/03/30 03:09:23;;;;;;;4.82;2.60;;;9.50;99.90;;;;;;5038015;28;20063;-83
2023/03/30 03:11:52;;;;;;;12.23;3.35;;;9.50;99.90;;;;;;5039048;28;20029;-83
2023/03/30 03:14:18;;;;;;;9.35;3.28;;;9.50;99.90;;;;;;5033521;28;20033;-83
2023/03/30 03:16:46;;;;;;;10.35;4.90;;;9.50;99.90;;;;;;5033477;28;20032;-83
2023/03/30 03:19:12;;;;;;;6.75;3.58;;;9.40;99.90;;;;;;5031747;28;20033;-83
2023/03/30 03:21:38;;;;;;;13.23;3.35;;;9.40;99.90;;;;;;5037094;28;20037;-82
2023/03/30 03:24:05;;;;;;;6.70;3.42;;;9.30;99.90;;;;;;5034606;28;20061;-83
2023/03/30 03:26:32;;;;;;;9.77;2.90;;;9.30;99.90;;;;;;5030203;28;20036;-83
2023/03/30 03:28:59;;;;;;;9.82;3.53;;;9.20;99.90;;;;;;5032410;28;20040;-83
2023/03/30 03:31:26;;;;;;;6.45;3.28;;;9.20;99.90;;;;;;5025516;28;20136;-83
2023/03/30 03:33:51;;;;;;;10.75;3.38;;;9.20;99.90;;;;;;5026117;28;20736;-83
2023/03/30 03:36:17;;;;;;;9.25;2.85;;;9.20;99.90;;;;;;5024677;28;20026;-82
2023/03/30 03:38:43;;;;;;;7.82;3.30;;;9.10;99.90;;;;;;5037080;28;20040;-83
2023/03/30 03:41:10;;;;;;;6.28;3.38;;;9.10;99.90;;;;;;5028577;28;20068;-83
2023/03/30 03:43:35;;;;;;;8.15;3.70;;;9.20;99.90;;;;;;5041266;28;20423;-83
2023/03/30 03:46:01;;;;;;;12.20;3.17;;;9.30;99.90;;;;;;5029776;28;20056;-82
2023/03/30 03:48:27;;;;;;;8.10;2.97;;;9.40;99.90;;;;;;5033076;28;20482;-82
2023/03/30 03:50:57;;;;;;;8.18;3.38;;;9.70;99.90;;;;;;5028183;28;20033;-82
2023/03/30 03:53:25;;;;;;;5.38;3.13;;;10.00;99.90;;;;;;5024715;28;20025;-81
2023/03/30 03:55:51;;;;;;;8.60;3.25;;;10.50;99.90;;;;;;5030398;28;20032;-84
2023/03/30 03:58:17;;;;;;;9.45;3.50;;;10.90;99.90;;;;;;5036894;28;20119;-81
2023/03/30 04:00:43;;;;;;;9.35;2.83;;;11.20;99.90;;;;;;5030967;28;20063;-81
2023/03/30 04:03:09;;;;;;;13.27;3.25;;;11.40;99.90;;;;;;5029789;28;20029;-80
2023/03/30 04:05:35;;;;;;;7.00;2.85;;;11.50;99.90;;;;;;5031459;28;20435;-82
2023/03/30 04:08:01;;;;;;;13.52;3.25;;;11.70;99.90;;;;;;5029516;28;20048;-82
2023/03/30 04:10:27;;;;;;;6.20;2.92;;;11.80;99.90;;;;;;5026335;28;20025;-80
2023/03/30 04:12:56;;;;;;;15.75;3.95;;;11.90;99.90;;;;;;5033114;28;20268;-81
2023/03/30 04:15:24;;;;;;;8.85;2.33;;;11.90;99.90;;;;;;5033105;28;20049;-81
2023/03/30 04:17:57;;;;;;;6.03;2.92;;;12.00;99.90;;;;;;5027479;28;20025;-81
2023/03/30 04:20:27;;;;;;;11.27;3.08;;;12.10;99.90;;;;;;5029111;28;20045;-83
2023/03/30 04:22:53;;;;;;;13.57;2.92;;;12.10;99.90;;;;;;5027084;28;20556;-83
2023/03/30 04:25:24;;;;;;;5.78;2.45;;;12.20;99.90;;;;;;5031526;28;20108;-86
2023/03/30 04:27:52;;;;;;;7.70;2.90;;;12.20;99.90;;;;;;5034519;28;20036;-82
2023/03/30 04:30:19;;;;;;;9.48;2.65;;;12.20;99.90;;;;;;5019537;28;20029;-82
2023/03/30 04:32:53;;;;;;;11.43;4.07;;;12.20;99.90;;;;;;5035336;28;20036;-82
2023/03/30 04:35:20;;;;;;;5.28;2.80;;;12.20;99.90;;;;;;5028021;28;20026;-84
2023/03/30 04:37:45;;;;;;;10.98;2.70;;;12.20;99.90;;;;;;5029360;28;20463;-82
2023/03/30 04:40:12;;;;;;;10.82;3.63;;;12.20;99.90;;;;;;5028828;28;20048;-81
2023/03/30 04:42:38;;;;;;;8.60;2.58;;;12.20;99.90;;;;;;5037095;28;20036;-82
2023/03/30 04:45:07;;;;;;;14.95;2.60;;;12.20;99.90;;;;;;5029998;28;20104;-83
2023/03/30 04:47:33;;;;;;;8.18;3.40;;;12.20;99.90;;;;;;5028511;28;20026;-82
2023/03/30 04:50:02;;;;;;;10.98;2.95;;;12.10;99.90;;;;;;5028003;28;20026;-83
2023/03/30 04:52:28;;;;;;;9.25;3.22;;;12.10;99.90;;;;;;5026838;28;20060;-83
2023/03/30 04:54:53;;;;;;;28.13;4.75;;;12.10;99.90;;;;;;5029708;28;20022;-85
2023/03/30 04:57:19;;;;;;;14.10;3.13;;;12.10;99.90;;;;;;5027737;28;20036;-83
2023/03/30 04:59:45;;;;;;;6.30;3.05;;;12.10;99.90;;;;;;5024587;28;20028;-84
2023/03/30 05:02:12;;;;;;;23.40;2.70;;;12.10;99.90;;;;;;5020166;28;20057;-82
2023/03/30 05:04:38;;;;;;;8.98;2.85;;;12.10;99.90;;;;;;5031641;28;20033;-83
2023/03/30 05:07:05;;;;;;;9.77;3.10;;;12.10;99.90;;;;;;5035365;28;20025;-82
2023/03/30 05:09:31;;;;;;;11.93;2.58;;;12.10;99.90;;;;;;5036104;28;20029;-82
2023/03/30 05:11:56;;;;;;;14.82;3.00;;;12.10;99.90;;;;;;5031216;28;20040;-82
2023/03/30 05:14:22;;;;;;;10.98;2.80;;;12.20;99.90;;;;;;5031107;28;20097;-83
2023/03/30 05:16:47;;;;;;;21.10;4.97;;;12.20;99.90;;;;;;5036698;28;20494;-82
2023/03/30 05:19:13;;;;;;;9.82;2.78;;;12.20;99.90;;;;;;5036081;28;20082;-84
2023/03/30 05:21:39;;;;;;;10.75;3.15;;;12.20;99.90;;;;;;5030123;28;20052;-81
2023/03/30 05:24:05;;;;;;;11.52;3.00;;;12.30;99.90;;;;;;5036930;28;20029;-84
2023/03/30 05:26:30;;;;;;;13.68;3.28;;;12.20;99.90;;;;;;5029942;28;20021;-81
2023/03/30 05:28:56;;;;;;;11.30;2.63;;;12.20;99.90;;;;;;5029943;28;20422;-83
2023/03/30 05:31:22;;;;;;;8.65;2.72;;;12.20;99.90;;;;;;5029359;28;20115;-85
2023/03/30 05:33:47;;;;;;;12.73;2.95;;;12.30;99.90;;;;;;5029520;28;20029;-82
2023/03/30 05:36:14;;;;;;;8.23;2.55;;;12.30;99.90;;;;;;5031140;28;20029;-82
2023/03/30 05:38:40;;;;;;;9.65;2.95;;;12.30;99.90;;;;;;5035894;28;20359;-84
2023/03/30 05:41:06;;;;;;;10.13;2.63;;;12.30;99.90;;;;;;5024576;28;20048;-83
2023/03/30 05:43:35;;;;;;;6.13;3.15;;;12.20;99.90;;;;;;5039653;28;20022;-83
2023/03/30 05:46:01;;;;;;;10.05;2.92;;;12.20;99.90;;;;;;5029970;28;20399;-81
2023/03/30 05:48:28;;;;;;;10.95;3.05;;;12.10;99.90;;;;;;5028988;28;20500;-81
2023/03/30 05:50:54;;;;;;;15.80;3.15;;;12.20;99.90;;;;;;5036155;28;20281;-83
2023/03/30 05:53:20;;;;;;;17.45;3.47;;;12.20;99.90;;;;;;5031960;28;20036;-85
2023/03/30 05:55:47;;;;;;;12.48;3.08;;;12.30;99.90;;;;;;5039637;28;20022;-83
2023/03/30 05:58:13;;;;;;;8.85;2.83;;;12.40;99.90;;;;;;5057141;28;20398;-81
2023/03/30 06:00:40;;;;;;;15.20;3.65;;;12.30;99.90;;;;;;5030894;28;20048;-80
2023/03/30 06:03:07;;;;;;;17.63;3.20;;;12.30;99.90;;;;;;5037315;28;20398;-80
2023/03/30 06:05:42;;;;;;;11.23;2.63;;;12.30;99.90;;;;;;5034553;28;20036;-81
2023/03/30 06:08:08;;;;;;;17.13;3.30;;;12.40;99.90;;;;;;5034659;28;20116;-82
2023/03/30 06:10:34;;;;;;;19.08;3.08;;;12.40;99.90;;;;;;5033183;28;20029;-81
2023/03/30 06:13:00;;;;;;;13.32;2.92;;;12.40;99.90;;;;;;5041328;28;20040;-80
2023/03/30 06:15:27;;;;;;;14.82;3.05;;;12.40;99.90;;;;;;5025044;28;20025;-81
2023/03/30 06:17:53;;;;;;;25.17;3.80;;;12.50;99.90;;;;;;5036500;28;20485;-82
2023/03/30 06:20:20;;;;;;;13.43;2.67;;;12.50;99.90;;;;;;5040455;28;20128;-81
2023/03/30 06:22:46;;;;;;;15.45;3.10;;;12.60;99.90;;;;;;5035673;28;20029;-81
2023/03/30 06:25:12;;;;;;;17.73;2.90;;;12.60;99.90;;;;;;5033210;28;20060;-82
2023/03/30 06:27:38;;;;;;;17.40;2.95;;;12.70;99.90;;;;;;5034521;28;20025;-81
2023/03/30 06:30:04;;;;;;;17.08;3.15;;;12.70;99.90;;;;;;5034069;28;20048;-81
2023/03/30 06:32:30;;;;;;;10.27;3.03;;;12.70;99.90;;;;;;5032391;28;20530;-81
2023/03/30 06:34:55;;;;;;;15.43;3.33;;;12.80;99.90;;;;;;5023940;28;20471;-80
2023/03/30 06:37:21;;;;;;;10.95;3.03;;;12.80;99.90;;;;;;5031790;28;20033;-81
2023/03/30 06:39:46;;;;;;;14.70;3.28;;;12.90;99.90;;;;;;5029290;28;20045;-81
2023/03/30 06:42:12;;;;;;;11.73;3.42;;;12.90;99.90;;;;;;5028726;28;20055;-81
2023/03/30 06:44:38;;;;;;;12.20;3.05;;;13.00;99.90;;;;;;5030144;28;20334;-82
2023/03/30 06:47:04;;;;;;;15.95;3.20;;;13.00;99.90;;;;;;5032031;28;20038;-82
2023/03/30 06:49:31;;;;;;;21.33;3.70;;;12.90;99.90;;;;;;5037460;28;20056;-82
2023/03/30 06:51:56;;;;;;;8.90;3.00;;;13.00;99.90;;;;;;5031273;28;20030;-83
2023/03/30 06:54:23;;;;;;;10.45;2.63;;;13.10;99.90;;;;;;5060410;28;20033;-82
2023/03/30 06:56:49;;;;;;;20.45;3.35;;;13.10;99.90;;;;;;5033493;28;20479;-81
2023/03/30 06:59:15;;;;;;;16.58;3.30;;;13.20;99.90;;;;;;5032337;28;20025;-81
2023/03/30 07:01:41;;;;;;;12.27;2.70;;;13.20;99.90;;;;;;5033726;28;20033;-81
2023/03/30 07:04:08;;;;;;;21.02;3.95;;;13.30;99.90;;;;;;5031211;28;20037;-81
2023/03/30 07:06:34;;;;;;;10.85;3.17;;;13.30;99.90;;;;;;5036273;28;20013;-81
2023/03/30 07:09:00;;;;;;;9.70;2.60;;;13.30;99.90;;;;;;5049297;28;20174;-82
2023/03/30 07:11:26;;;;;;;14.20;3.38;;;13.30;99.90;;;;;;5038971;28;20036;-82
2023/03/30 07:13:53;;;;;;;15.20;3.17;;;13.40;99.90;;;;;;5039456;28;20025;-83
2023/03/30 07:16:20;;;;;;;11.35;3.03;;;13.50;99.90;;;;;;5045615;28;20025;-82
2023/03/30 07:18:46;;;;;;;14.25;4.03;;;13.50;99.90;;;;;;5043104;28;20148;-82
2023/03/30 07:21:11;;;;;;;14.80;2.45;;;13.60;99.90;;;;;;5038080;28;20407;-81
2023/03/30 07:23:37;;;;;;;17.35;3.42;;;13.70;99.90;;;;;;5046836;28;20036;-82
2023/03/30 07:26:03;;;;;;;10.15;2.72;;;13.70;99.90;;;;;;5046182;28;20032;-82
2023/03/30 07:28:32;;;;;;;19.95;3.75;;;13.80;99.90;;;;;;5044342;28;20021;-81
2023/03/30 07:31:05;;;;;;;13.20;3.05;;;13.80;99.90;;;;;;5034640;28;20456;-83
2023/03/30 07:33:31;;;;;;;11.25;3.17;;;13.90;99.90;;;;;;5024828;28;20115;-82
2023/03/30 07:35:57;;;;;;;14.55;5.43;;;13.90;99.90;;;;;;5032367;28;20046;-81
2023/03/30 07:38:23;;;;;;;19.58;5.22;;;14.00;99.90;;;;;;5035193;28;20497;-82
2023/03/30 07:40:49;;;;;;;21.27;9.85;;;14.00;99.90;;;;;;5038656;28;20033;-82
2023/03/30 07:43:15;;;;;;;21.67;3.72;;;14.00;99.90;;;;;;5035461;28;20551;-82
2023/03/30 07:45:40;;;;;;;22.75;7.85;;;14.00;99.90;;;;;;5036906;28;20056;-86
2023/03/30 07:48:06;;;;;;;18.83;4.93;;;14.00;99.90;;;;;;5032397;28;20052;-83
2023/03/30 07:50:32;;;;;;;18.50;4.22;;;14.10;99.90;;;;;;5031386;28;20018;-80
2023/03/30 07:52:57;;;;;;;10.70;3.35;;;14.10;99.90;;;;;;5040812;28;20025;-82
2023/03/30 07:55:23;;;;;;;16.17;3.30;;;14.20;99.90;;;;;;5029825;28;20372;-81
2023/03/30 07:57:50;;;;;;;14.68;3.30;;;14.20;99.90;;;;;;5036125;28;20036;-82
2023/03/30 08:00:16;;;;;;;13.20;3.05;;;14.30;99.90;;;;;;5031073;28;20050;-82
2023/03/30 08:02:43;;;;;;;16.10;3.33;;;14.30;99.90;;;;;;5033399;28;20036;-82
2023/03/30 08:05:10;;;;;;;22.67;4.00;;;14.20;99.90;;;;;;5026568;28;20025;-84
2023/03/30 08:07:35;;;;;;;11.90;3.38;;;14.20;99.90;;;;;;5028375;28;20063;-81
2023/03/30 08:10:01;;;;;;;13.55;3.40;;;14.20;99.90;;;;;;5036561;28;20029;-83
2023/03/30 08:12:27;;;;;;;13.93;3.00;;;14.20;99.90;;;;;;5034428;28;20041;-83
2023/03/30 08:14:54;;;;;;;16.67;3.85;;;14.30;99.90;;;;;;5029771;28;20425;-82
2023/03/30 08:17:20;;;;;;;20.20;3.35;;;14.30;99.90;;;;;;5044478;28;20028;-81
2023/03/30 08:19:45;;;;;;;13.13;3.53;;;14.20;99.90;;;;;;5034597;28;20459;-82
2023/03/30 08:22:11;;;;;;;12.63;3.83;;;14.20;99.90;;;;;;5040213;28;20088;-83
2023/03/30 08:24:36;;;;;;;13.75;3.05;;;14.20;99.90;;;;;;5028874;28;20029;-81
2023/03/30 08:27:02;;;;;;;13.60;3.97;;;14.20;99.90;;;;;;5036522;28;20021;-84
2023/03/30 08:29:30;;;;;;;13.43;3.78;;;14.20;99.90;;;;;;5036065;28;20044;-81
2023/03/30 08:31:56;;;;;;;16.60;3.30;;;14.20;99.90;;;;;;5035450;28;20028;-81
2023/03/30 08:34:22;;;;;;;19.92;3.55;;;14.20;99.90;;;;;;5036896;28;20029;-81
2023/03/30 08:36:47;;;;;;;10.90;3.40;;;14.20;99.90;;;;;;5034553;28;20379;-83
2023/03/30 08:39:14;;;;;;;13.60;4.18;;;14.20;99.90;;;;;;5034283;28;20047;-83
2023/03/30 08:42:12;;;;;;;18.77;3.88;;;14.30;99.90;;;;;;5037583;28;20410;-81
2023/03/30 08:44:44;;;;;;;16.88;3.88;;;14.30;99.90;;;;;;5000657;28;20049;-84
2023/03/30 08:47:14;;;;;;;16.02;3.63;;;14.30;99.90;;;;;;5028252;28;20053;-84
2023/03/30 08:50:01;;;;;;;17.33;3.25;;;14.30;99.90;;;;;;5035492;28;20025;-82
2023/03/30 08:52:26;;;;;;;14.30;4.82;;;14.40;99.90;;;;;;5030486;28;20025;-82
2023/03/30 08:54:52;;;;;;;13.02;4.88;;;14.40;99.90;;;;;;5037828;28;20025;-83
2023/03/30 08:57:30;;;;;;;23.80;5.55;;;14.30;99.90;;;;;;5035149;28;20397;-81
2023/03/30 09:00:42;;;;;;;13.60;3.20;;;14.20;99.90;;;;;;5026797;28;20433;-79
2023/03/30 09:03:22;;;;;;;12.90;4.20;;;14.20;99.90;;;;;;5019692;28;20045;-80
2023/03/30 09:05:53;;;;;;;13.93;3.70;;;14.10;99.90;;;;;;5031953;28;20118;-82
2023/03/30 09:08:27;;;;;;;13.00;3.60;;;14.10;99.90;;;;;;5039496;28;20470;-83
2023/03/30 09:11:00;;;;;;;20.27;4.68;;;14.00;99.90;;;;;;5032788;28;20108;-82
2023/03/30 09:13:33;;;;;;;11.18;3.17;;;14.00;99.90;;;;;;5034256;28;20026;-82
2023/03/30 09:16:11;;;;;;;11.93;3.65;;;14.00;99.90;;;;;;5037858;28;20026;-83
2023/03/30 09:18:40;;;;;;;14.25;4.25;;;13.90;99.90;;;;;;5037346;28;20034;-82
2023/03/30 09:21:09;;;;;;;13.80;4.63;;;13.90;99.90;;;;;;5035335;28;20048;-84
2023/03/30 09:23:34;;;;;;;22.55;4.22;;;14.00;99.90;;;;;;5037513;28;20034;-82
2023/03/30 09:26:10;;;;;;;15.75;3.65;;;13.90;99.90;;;;;;5035387;28;20449;-83
2023/03/30 09:28:58;;;;;;;12.90;3.25;;;14.00;99.90;;;;;;5035465;28;20033;-82
2023/03/30 09:31:40;;;;;;;23.33;4.85;;;14.00;99.90;;;;;;5035382;28;20032;-83
2023/03/30 09:34:24;;;;;;;9.52;3.42;;;14.10;99.90;;;;;;5033217;28;20593;-84
2023/03/30 09:37:07;;;;;;;17.52;3.88;;;14.20;99.90;;;;;;5029408;28;20025;-85
2023/03/30 09:39:36;;;;;;;23.65;5.15;;;14.40;99.90;;;;;;5020972;28;20479;-82
2023/03/30 09:42:32;;;;;;;17.73;4.07;;;14.50;99.90;;;;;;5024120;28;20041;-82
2023/03/30 09:45:05;;;;;;;21.25;4.20;;;14.70;99.90;;;;;;5032066;28;20123;-82
2023/03/30 09:47:41;;;;;;;20.50;3.88;;;14.70;99.90;;;;;;5028652;28;20140;-82
2023/03/30 09:50:16;;;;;;;16.88;3.47;;;14.90;99.90;;;;;;5045812;28;20071;-79
2023/03/30 09:52:55;;;;;;;14.07;3.60;;;15.10;99.90;;;;;;5032737;28;20080;-81
2023/03/30 09:55:20;;;;;;;22.88;4.10;;;15.20;99.90;;;;;;5034190;28;20029;-82
2023/03/30 09:57:50;;;;;;;21.23;4.68;;;15.30;99.90;;;;;;5033565;28;20585;-84
2023/03/30 10:00:32;;;;;;;15.73;4.20;;;15.30;99.90;;;;;;5034691;28;20053;-83
2023/03/30 10:03:01;;;;;;;15.90;3.58;;;15.30;99.90;;;;;;5032428;28;20041;-81
2023/03/30 10:05:27;;;;;;;14.40;3.67;;;15.20;99.90;;;;;;5039212;28;20033;-81
2023/03/30 10:08:03;;;;;;;18.10;4.28;;;15.20;99.90;;;;;;5043857;28;20482;-81
2023/03/30 10:10:37;;;;;;;15.85;3.70;;;15.30;99.90;;;;;;5028151;28;20528;-85
2023/03/30 10:13:16;;;;;;;17.50;4.18;;;15.40;99.90;;;;;;5031430;28;20032;-81
2023/03/30 10:15:44;;;;;;;15.75;3.75;;;15.40;99.90;;;;;;5029881;28;20041;-80
2023/03/30 10:18:29;;;;;;;11.88;3.85;;;15.50;99.90;;;;;;5031939;28;20033;-82
2023/03/30 10:21:12;;;;;;;17.98;3.88;;;15.50;99.90;;;;;;5032742;28;20406;-80
2023/03/30 10:23:40;;;;;;;16.33;3.95;;;15.60;99.90;;;;;;5040874;28;20029;-80
2023/03/30 10:26:17;;;;;;;16.65;3.72;;;15.60;99.90;;;;;;5037938;28;20121;-82
2023/03/30 10:28:54;;;;;;;23.13;4.40;;;15.60;99.90;;;;;;5031744;28;20032;-83
2023/03/30 10:31:21;;;;;;;21.42;4.55;;;15.70;99.90;;;;;;5036887;28;20060;-81
2023/03/30 10:33:48;;;;;;;11.18;3.35;;;15.80;99.90;;;;;;5034476;28;20037;-83
2023/03/30 10:36:16;;;;;;;12.63;3.95;;;15.80;99.90;;;;;;5041136;28;20033;-81
2023/03/30 10:38:43;;;;;;;16.15;4.43;;;15.90;99.90;;;;;;5030072;28;20043;-82
2023/03/30 10:41:20;;;;;;;14.70;4.10;;;16.00;99.90;;;;;;5034579;28;20124;-85
2023/03/30 10:43:48;;;;;;;13.93;3.42;;;16.10;99.90;;;;;;5030724;28;20056;-81
2023/03/30 10:46:20;;;;;;;19.80;3.17;;;16.10;99.90;;;;;;5046166;28;20025;-82
2023/03/30 10:49:06;;;;;;;13.93;3.63;;;16.20;99.90;;;;;;5038463;28;20060;-81
2023/03/30 10:51:51;;;;;;;19.27;3.80;;;16.20;99.90;;;;;;5039797;28;20123;-82
2023/03/30 10:54:22;;;;;;;15.80;3.80;;;16.20;99.90;;;;;;5040953;28;20390;-80
2023/03/30 10:56:55;;;;;;;12.45;3.67;;;16.40;99.90;;;;;;5030461;28;20064;-82
2023/03/30 10:59:40;;;;;;;13.00;3.17;;;16.50;99.90;;;;;;5062355;28;20116;-80
2023/03/30 11:02:20;;;;;;;11.20;3.45;;;16.70;99.90;;;;;;5039908;28;20533;-81
2023/03/30 11:04:52;;;;;;;22.73;3.63;;;16.80;99.90;;;;;;5045000;28;20025;-81
2023/03/30 11:07:30;;;;;;;13.27;2.97;;;16.80;99.90;;;;;;5048549;28;20132;-81
2023/03/30 11:10:13;;;;;;;19.33;4.38;;;16.80;99.90;;;;;;5035812;28;20491;-81
2023/03/30 11:12:46;;;;;;;22.80;3.33;;;16.70;99.90;;;;;;5038869;28;20026;-85
2023/03/30 11:15:20;;;;;;;19.52;4.50;;;16.70;99.90;;;;;;5032243;28;20033;-80
2023/03/30 11:18:05;;;;;;;6.55;2.50;;;16.70;99.90;;;;;;5037458;28;20441;-81
2023/03/30 11:20:44;;;;;;;17.13;3.10;;;16.60;99.90;;;;;;5038755;28;20449;-81
2023/03/30 11:23:23;;;;;;;12.68;4.72;;;16.60;99.90;;;;;;5025236;28;20041;-81
2023/03/30 11:25:58;;;;;;;7.93;2.85;;;16.50;99.90;;;;;;5034652;28;20549;-80
2023/03/30 11:28:35;;;;;;;;;;;16.60;99.90;;;;;;5035842;28;20022;-81
2023/03/30 11:31:12;;;;;;;12.30;2.92;;;16.60;99.90;;;;;;5026473;28;19913;-81
2023/03/30 11:33:52;;;;;;;12.18;3.33;;;16.60;99.90;;;;;;5033966;28;20025;-81
2023/03/30 11:36:34;;;;;;;16.55;2.80;;;16.60;99.90;;;;;;5031655;28;20104;-81
2023/03/30 11:39:03;;;;;;;15.20;2.65;;;16.60;99.90;;;;;;5036569;28;20471;-81
2023/03/30 11:41:50;;;;;;;12.82;3.70;;;16.60;99.90;;;;;;5036682;28;20045;-81
2023/03/30 11:44:16;;;;;;;9.65;3.42;;;16.70;99.90;;;;;;5027094;28;20033;-80
2023/03/30 11:46:57;;;;;;;6.35;2.47;;;16.70;99.90;;;;;;5038059;28;20064;-81
2023/03/30 11:49:57;;;;;;;11.27;2.97;;;16.70;99.90;;;;;;5028478;28;20040;-83
2023/03/30 11:52:37;;;;;;;13.57;2.63;;;16.60;99.90;;;;;;5028220;28;20060;-80
2023/03/30 11:55:24;;;;;;;17.23;2.95;;;16.60;99.90;;;;;;5036520;28;20065;-81
2023/03/30 11:58:00;;;;;;;15.65;3.33;;;16.50;99.90;;;;;;5027281;28;20025;-80
2023/03/30 12:00:26;;;;;;;20.05;2.72;;;16.40;99.90;;;;;;5027439;28;20428;-80
2023/03/30 12:02:52;;;;;;;10.73;2.92;;;16.40;99.90;;;;;;5033602;28;20021;-81
2023/03/30 12:05:27;;;;;;;11.77;3.03;;;16.30;99.90;;;;;;5033273;28;20693;-82
2023/03/30 12:08:03;;;;;;;11.27;3.13;;;16.30;99.90;;;;;;5034897;28;20050;-81
2023/03/30 12:10:28;;;;;;;;;;;16.20;99.90;;;;;;5032301;28;20037;-81
2023/03/30 12:12:55;;;;;;;9.50;2.47;;;16.20;99.90;;;;;;5031231;28;19916;-81
2023/03/30 12:15:33;;;;;;;11.23;2.83;;;16.20;99.90;;;;;;5033369;28;20048;-81
2023/03/30 12:18:11;;;;;;;7.65;2.13;;;16.20;99.90;;;;;;5030978;28;20079;-81
2023/03/30 12:20:49;;;;;;;15.55;3.67;;;16.20;99.90;;;;;;5027547;28;20033;-84
2023/03/30 12:23:32;;;;;;;12.02;2.67;;;16.20;99.90;;;;;;5027451;28;20114;-83
2023/03/30 12:26:19;;;;;;;12.75;2.50;;;16.20;99.90;;;;;;5025668;28;20024;-82
2023/03/30 12:28:51;;;;;;;5.05;2.65;;;16.20;99.90;;;;;;5028667;28;20057;-82
2023/03/30 12:31:18;;;;;;;3.15;1.35;;;16.30;99.90;;;;;;5034097;28;20686;-82
2023/03/30 12:33:49;;;;;;;2.03;0.80;;;16.10;99.90;;;;;;5026386;28;20021;-80
2023/03/30 12:36:26;;;;;;;2.33;1.30;;;15.30;99.90;;;;;;5033964;28;20033;-82
2023/03/30 12:39:00;;;;;;;2.88;1.70;;;14.40;99.90;;;;;;5032933;28;20087;-83
2023/03/30 12:41:28;;;;;;;3.90;1.05;;;13.70;99.90;;;;;;5030350;28;20040;-81
2023/03/30 12:44:22;;;;;;;3.03;1.00;;;13.10;99.90;;;;;;5029157;28;20494;-81
2023/03/30 12:47:01;;;;;;;3.88;1.33;;;12.50;99.90;;;;;;5027526;28;20121;-86
2023/03/30 12:49:41;;;;;;;8.60;1.98;;;12.10;99.90;;;;;;5023031;28;20029;-82
2023/03/30 12:52:14;;;;;;;4.45;1.55;;;11.80;99.90;;;;;;5027551;28;20502;-80
2023/03/30 12:54:48;;;;;;;10.82;2.10;;;11.60;99.90;;;;;;5022378;28;20340;-83
2023/03/30 12:57:37;;;;;;;4.75;1.63;;;11.40;99.90;;;;;;5022946;28;20028;-83
2023/03/30 13:00:29;;;;;;;10.15;2.55;;;11.40;99.90;;;;;;5031810;28;20088;-83
2023/03/30 13:03:25;;;;;;;11.25;2.30;;;11.20;99.90;;;;;;5027253;28;20061;-86
2023/03/30 13:05:53;;;;;;;12.75;2.13;;;11.10;99.90;;;;;;5019729;28;20837;-83
2023/03/30 13:08:31;;;;;;;8.77;1.98;;;11.00;99.90;;;;;;5029285;28;20142;-80